Time;durP1;ratioP1;P1;durP2;ratioP2;P2;SDS_P1;SDS_P2;PMS_P1;PMS_P2;Temp;Humidity;BMP_temperature;BMP_pressure;BME280_temperature;BME280_humidity;BME280_pressure;Samples;Min_cycle;Max_cycle;Signal;HPM_P1;HPM_P2
2022/10/16 00:00:22;;;;;;;16.20;9.80;;;;;;;12.28;100.00;100426.78;7390544;19;20453;-52
2022/10/16 00:02:51;;;;;;;18.20;8.17;;;;;;;12.27;100.00;100425.00;7394214;19;20751;-56
2022/10/16 00:05:20;;;;;;;15.20;8.80;;;;;;;12.27;100.00;100422.44;7390890;19;20776;-52
2022/10/16 00:07:52;;;;;;;17.47;8.80;;;;;;;12.25;100.00;100421.50;7393024;19;20379;-58
2022/10/16 00:10:22;;;;;;;14.73;7.90;;;;;;;12.23;100.00;100433.53;7391105;19;20441;-54
2022/10/16 00:12:51;;;;;;;19.97;9.50;;;;;;;12.22;100.00;100426.59;7393553;19;20409;-57
2022/10/16 00:15:21;;;;;;;14.77;9.90;;;;;;;12.21;100.00;100435.16;7390661;19;20525;-52
2022/10/16 00:17:50;;;;;;;16.13;8.13;;;;;;;12.21;100.00;100430.00;7392656;19;20391;-52
2022/10/16 00:20:20;;;;;;;14.70;8.70;;;;;;;12.19;100.00;100444.59;7389523;19;20412;-55
2022/10/16 00:22:49;;;;;;;11.50;7.93;;;;;;;12.20;100.00;100435.16;7393813;19;20427;-58
2022/10/16 00:25:21;;;;;;;12.50;7.50;;;;;;;12.23;100.00;100435.22;7390528;19;20410;-53
2022/10/16 00:27:51;;;;;;;10.83;6.63;;;;;;;12.26;100.00;100448.25;7392329;19;20417;-59
2022/10/16 00:30:20;;;;;;;10.90;6.43;;;;;;;12.26;100.00;100448.25;7390839;19;20419;-58
2022/10/16 00:32:49;;;;;;;14.30;7.43;;;;;;;12.27;100.00;100455.19;7393653;19;20394;-54
2022/10/16 00:35:19;;;;;;;19.20;6.47;;;;;;;12.24;100.00;100460.25;7392576;19;20413;-56
2022/10/16 00:37:48;;;;;;;22.73;7.20;;;;;;;12.25;100.00;100472.38;7392011;19;20410;-57
2022/10/16 00:40:23;;;;;;;10.53;5.77;;;;;;;12.25;100.00;100475.84;7391677;19;20486;-50
2022/10/16 00:42:52;;;;;;;9.30;5.30;;;;;;;12.32;100.00;100478.59;7392769;19;20380;-55
2022/10/16 00:45:22;;;;;;;8.50;5.00;;;;;;;12.29;100.00;100498.38;7389513;19;20438;-57
2022/10/16 00:47:52;;;;;;;8.30;5.27;;;;;;;12.30;100.00;100499.25;7391798;19;20725;-58
2022/10/16 00:50:25;;;;;;;6.80;4.17;;;;;;;12.39;100.00;100511.59;7390549;19;21016;-55
2022/10/16 00:52:55;;;;;;;7.77;4.30;;;;;;;12.42;100.00;100511.69;7392997;19;20390;-55
2022/10/16 00:55:29;;;;;;;7.43;4.23;;;;;;;12.42;100.00;100522.03;7386185;19;20979;-58
2022/10/16 00:58:00;;;;;;;7.50;4.10;;;;;;;12.43;100.00;100523.78;7391902;19;20517;-52
2022/10/16 01:00:29;;;;;;;6.40;3.17;;;;;;;12.44;100.00;100538.47;7390524;19;21003;-54
2022/10/16 01:03:01;;;;;;;10.60;3.83;;;;;;;12.39;100.00;100532.28;7392387;19;20383;-54
2022/10/16 01:05:36;;;;;;;6.23;3.50;;;;;;;12.37;100.00;100539.13;7389372;19;20517;-55
2022/10/16 01:08:11;;;;;;;7.23;3.50;;;;;;;12.33;100.00;100555.38;7392606;19;20417;-48
2022/10/16 01:10:46;;;;;;;4.97;2.97;;;;;;;12.33;100.00;100564.03;7389481;19;20413;-54
2022/10/16 01:13:21;;;;;;;4.17;2.87;;;;;;;12.37;100.00;100559.81;7392328;19;20414;-59
2022/10/16 01:15:56;;;;;;;12.27;3.90;;;;;;;12.34;100.00;100565.78;7389104;19;20407;-57
2022/10/16 01:18:31;;;;;;;8.87;3.20;;;;;;;12.30;100.00;100569.09;7390596;19;20418;-56
2022/10/16 01:21:05;;;;;;;8.70;3.37;;;;;;;12.28;100.00;100566.47;7388969;19;20998;-51
2022/10/16 01:23:43;;;;;;;6.83;2.83;;;;;;;12.25;100.00;100566.34;7391556;19;20390;-56
2022/10/16 01:26:35;;;;;;;5.07;2.70;;;;;;;12.21;100.00;100574.84;7388123;19;20947;-54
2022/10/16 01:29:12;;;;;;;9.10;3.10;;;;;;;12.17;100.00;100573.00;7389455;19;20444;-56
2022/10/16 01:31:43;;;;;;;7.03;3.20;;;;;;;12.15;100.00;100574.63;7391867;19;20439;-56
2022/10/16 01:34:16;;;;;;;4.30;2.80;;;;;;;12.15;100.00;100574.63;7398624;19;20439;-55
2022/10/16 01:36:49;;;;;;;3.83;2.50;;;;;;;12.12;100.00;100567.69;7395641;19;20415;-53
2022/10/16 01:39:21;;;;;;;6.70;2.87;;;;;;;12.09;100.00;100574.44;7396949;19;20417;-55
2022/10/16 01:41:56;;;;;;;10.73;2.87;;;;;;;12.09;100.00;100569.28;7396549;19;20429;-50
2022/10/16 01:44:31;;;;;;;8.00;2.63;;;;;;;12.05;100.00;100570.03;7400060;19;20381;-53
2022/10/16 01:47:01;;;;;;;11.80;3.13;;;;;;;12.08;100.00;100575.28;7398073;19;20376;-54
2022/10/16 01:49:35;;;;;;;5.90;2.77;;;;;;;11.99;100.00;100574.13;7393423;19;20445;-57
2022/10/16 01:52:10;;;;;;;6.50;3.00;;;;;;;11.96;100.00;100570.56;7398060;19;20385;-54
2022/10/16 01:54:42;;;;;;;4.83;2.63;;;;;;;11.97;100.00;100569.72;7393596;19;20393;-54
2022/10/16 01:57:12;;;;;;;6.70;2.60;;;;;;;11.95;100.00;100572.25;7398511;19;20405;-52
2022/10/16 01:59:46;;;;;;;7.20;2.67;;;;;;;11.91;100.00;100578.16;7391967;19;20428;-54
2022/10/16 02:02:17;;;;;;;7.37;2.60;;;;;;;11.88;100.00;100575.47;7396768;19;20916;-51
2022/10/16 02:04:49;;;;;;;6.03;2.53;;;;;;;11.85;100.00;100573.66;7394278;19;20418;-55
2022/10/16 02:07:18;;;;;;;5.13;2.53;;;;;;;11.85;100.00;100567.63;7398077;19;20392;-56
2022/10/16 02:09:48;;;;;;;9.80;2.70;;;;;;;11.82;100.00;100572.69;7392209;19;20411;-48
2022/10/16 02:12:21;;;;;;;7.13;2.17;;;;;;;11.81;100.00;100573.50;7397673;19;20414;-56
2022/10/16 02:14:54;;;;;;;4.50;1.97;;;;;;;11.77;100.00;100575.09;7394817;19;20940;-56
2022/10/16 02:17:23;;;;;;;5.67;2.60;;;;;;;11.78;100.00;100568.25;7397179;19;20909;-56
2022/10/16 02:19:55;;;;;;;5.10;2.50;;;;;;;11.74;100.00;100575.00;7392691;19;20926;-56
2022/10/16 02:22:27;;;;;;;5.03;2.40;;;;;;;11.70;100.00;100574.00;7395983;19;20386;-52
2022/10/16 02:25:00;;;;;;;6.80;1.90;;;;;;;11.68;100.00;100573.09;7393926;19;20409;-54
2022/10/16 02:27:34;;;;;;;6.20;2.30;;;;;;;11.63;100.00;100573.78;7396333;19;20912;-57
2022/10/16 02:30:10;;;;;;;5.10;2.53;;;;;;;11.61;100.00;100576.28;7394658;19;20451;-50
2022/10/16 02:32:41;;;;;;;8.07;3.13;;;;;;;11.60;100.00;100569.38;7396889;19;20386;-55
2022/10/16 02:35:11;;;;;;;3.90;1.80;;;;;;;11.60;100.00;100569.38;7394536;19;20448;-52
2022/10/16 02:37:41;;;;;;;9.53;2.93;;;;;;;11.60;100.00;100579.72;7396962;19;20408;-51
2022/10/16 02:40:12;;;;;;;3.43;2.43;;;;;;;11.59;100.00;100572.78;7389559;19;20443;-56
2022/10/16 02:42:42;;;;;;;6.90;2.10;;;;;;;11.53;100.00;100572.56;7395017;19;20779;-50
2022/10/16 02:45:14;;;;;;;6.07;2.13;;;;;;;11.50;100.00;100572.44;7394060;19;20441;-53
2022/10/16 02:47:44;;;;;;;7.70;2.97;;;;;;;11.47;100.00;100573.22;7395223;19;20408;-50
2022/10/16 02:50:13;;;;;;;6.17;3.50;;;;;;;11.47;100.00;100575.81;7393172;19;20855;-53
2022/10/16 02:52:42;;;;;;;6.03;1.90;;;;;;;11.45;100.00;100573.16;7396321;19;20411;-54
2022/10/16 02:55:12;;;;;;;4.17;2.20;;;;;;;11.42;100.00;100570.47;7394325;19;20417;-55
2022/10/16 02:57:41;;;;;;;6.53;2.37;;;;;;;11.39;100.00;100570.34;7394929;19;20707;-50
2022/10/16 03:00:17;;;;;;;3.70;1.97;;;;;;;11.37;100.00;100566.84;7392218;19;20414;-55
2022/10/16 03:02:47;;;;;;;5.73;2.27;;;;;;;11.44;100.00;100565.38;7395074;19;20402;-57
2022/10/16 03:05:17;;;;;;;4.47;2.13;;;;;;;11.37;100.00;100568.56;7393226;19;20761;-54
2022/10/16 03:07:46;;;;;;;8.17;2.47;;;;;;;11.39;100.00;100564.34;7394483;19;20408;-52
2022/10/16 03:10:15;;;;;;;4.97;1.93;;;;;;;11.34;100.00;100571.91;7393136;19;20460;-56
2022/10/16 03:12:45;;;;;;;5.07;2.20;;;;;;;11.29;100.00;100568.28;7395508;19;20403;-57
2022/10/16 03:15:17;;;;;;;3.23;1.73;;;;;;;11.27;100.00;100562.19;7394449;19;20436;-56
2022/10/16 03:17:46;;;;;;;5.20;1.87;;;;;;;11.24;100.00;100556.91;7394234;19;20398;-54
2022/10/16 03:20:16;;;;;;;5.30;2.23;;;;;;;11.22;100.00;100556.84;7392449;19;20770;-57
2022/10/16 03:22:45;;;;;;;4.70;1.83;;;;;;;11.18;100.00;100550.69;7394291;19;20376;-54
2022/10/16 03:25:15;;;;;;;3.93;1.80;;;;;;;11.14;100.00;100547.97;7389776;19;20439;-54
2022/10/16 03:27:44;;;;;;;4.57;2.40;;;;;;;11.12;100.00;100545.31;7393593;19;20365;-54
2022/10/16 03:30:17;;;;;;;4.97;2.27;;;;;;;11.07;100.00;100557.16;7391422;19;20438;-52
2022/10/16 03:32:46;;;;;;;5.17;1.90;;;;;;;11.06;100.00;100551.16;7395059;19;20408;-51
2022/10/16 03:35:16;;;;;;;6.07;2.47;;;;;;;11.10;100.00;100551.25;7391795;19;20439;-50
2022/10/16 03:37:45;;;;;;;4.87;2.20;;;;;;;11.11;100.00;100553.00;7393320;19;20421;-56
2022/10/16 03:40:15;;;;;;;8.27;2.33;;;;;;;11.07;100.00;100547.72;7392016;19;20435;-49
2022/10/16 03:42:45;;;;;;;11.10;5.10;;;;;;;11.08;100.00;100548.63;7395711;19;20423;-55
2022/10/16 03:45:17;;;;;;;4.70;1.83;;;;;;;11.03;100.00;100542.41;7391543;19;20449;-58
2022/10/16 03:47:47;;;;;;;5.70;2.00;;;;;;;11.06;100.00;100550.25;7393300;19;20943;-50
2022/10/16 03:50:16;;;;;;;3.97;2.13;;;;;;;11.02;100.00;100549.25;7393414;19;20408;-59
2022/10/16 03:52:46;;;;;;;9.50;2.20;;;;;;;11.10;100.00;100557.28;7394189;19;20381;-57
2022/10/16 03:55:15;;;;;;;2.80;1.90;;;;;;;11.09;100.00;100550.38;7389909;19;20431;-49
2022/10/16 03:57:45;;;;;;;9.90;2.47;;;;;;;11.06;100.00;100545.09;7392910;19;20738;-54
2022/10/16 04:00:17;;;;;;;5.50;1.87;;;;;;;11.08;100.00;100558.94;7390759;19;20950;-56
2022/10/16 04:02:47;;;;;;;7.70;2.57;;;;;;;11.08;100.00;100548.63;7393879;19;20412;-53
2022/10/16 04:05:17;;;;;;;7.77;2.20;;;;;;;11.07;100.00;100558.06;7390344;19;20434;-53
2022/10/16 04:07:46;;;;;;;4.80;1.80;;;;;;;11.06;100.00;100558.88;7392893;19;20391;-53
2022/10/16 04:10:16;;;;;;;7.00;1.97;;;;;;;11.00;100.00;100568.09;7391294;19;20407;-54
2022/10/16 04:12:45;;;;;;;4.07;1.57;;;;;;;11.01;100.00;100582.75;7393861;19;20759;-50
2022/10/16 04:15:17;;;;;;;5.03;1.73;;;;;;;11.08;100.00;100577.03;7391073;19;20792;-55
2022/10/16 04:17:47;;;;;;;7.40;1.60;;;;;;;11.13;100.00;100582.34;7392811;19;20710;-52
2022/10/16 04:20:16;;;;;;;3.60;1.50;;;;;;;11.12;100.00;100576.28;7388481;19;20415;-51
2022/10/16 04:22:45;;;;;;;6.40;2.30;;;;;;;11.13;100.00;100578.06;7393156;19;20404;-59
2022/10/16 04:25:15;;;;;;;6.93;2.77;;;;;;;11.13;100.00;100593.53;7390385;19;20411;-55
2022/10/16 04:27:44;;;;;;;3.63;1.80;;;;;;;11.13;100.00;100590.09;7392330;19;20403;-55
2022/10/16 04:30:17;;;;;;;7.43;1.80;;;;;;;11.14;100.00;100587.59;7390446;19;20411;-56
2022/10/16 04:32:50;;;;;;;3.53;1.57;;;;;;;11.09;100.00;100578.78;7393287;19;20392;-51
2022/10/16 04:35:20;;;;;;;2.77;1.57;;;;;;;11.07;100.00;100580.41;7393015;19;20430;-56
2022/10/16 04:37:50;;;;;;;6.13;1.60;;;;;;;11.10;100.00;100583.13;7392566;19;20917;-57
2022/10/16 04:40:19;;;;;;;4.10;2.10;;;;;;;11.05;100.00;100588.13;7390813;19;20948;-53
2022/10/16 04:42:49;;;;;;;2.40;1.20;;;;;;;11.06;100.00;100592.44;7392951;19;20384;-57
2022/10/16 04:45:21;;;;;;;6.60;1.60;;;;;;;11.05;100.00;100594.97;7391690;19;20442;-53
2022/10/16 04:47:50;;;;;;;4.83;1.60;;;;;;;11.05;100.00;100603.59;7392182;19;20376;-52
2022/10/16 04:50:20;;;;;;;5.90;1.70;;;;;;;11.01;100.00;100603.41;7390473;19;20442;-52
2022/10/16 04:52:49;;;;;;;6.30;2.00;;;;;;;10.99;100.00;100610.22;7392944;19;20392;-54
2022/10/16 04:55:18;;;;;;;4.27;1.93;;;;;;;10.98;100.00;100599.00;7390079;19;20432;-51
2022/10/16 04:57:48;;;;;;;5.03;1.70;;;;;;;10.90;100.00;100609.06;7391788;19;20756;-51
2022/10/16 05:00:17;;;;;;;9.20;3.27;;;;;;;10.94;100.00;100604.91;7390135;19;20438;-57
2022/10/16 05:02:49;;;;;;;4.83;1.27;;;;;;;10.98;100.00;100596.44;7396065;19;20403;-53
2022/10/16 05:05:19;;;;;;;4.60;2.27;;;;;;;10.93;100.00;100600.56;7392018;19;20412;-51
2022/10/16 05:07:49;;;;;;;3.87;1.60;;;;;;;10.97;100.00;100597.25;7398762;19;20415;-50
2022/10/16 05:10:18;;;;;;;5.97;2.40;;;;;;;10.92;100.00;100594.50;7396644;19;20419;-51
2022/10/16 05:12:48;;;;;;;6.00;2.00;;;;;;;10.92;100.00;100596.22;7401057;19;20418;-54
2022/10/16 05:15:18;;;;;;;7.17;2.20;;;;;;;10.98;100.00;100608.47;7396907;19;20401;-56
2022/10/16 05:17:50;;;;;;;3.70;2.27;;;;;;;10.97;100.00;100596.41;7398665;19;20387;-55
2022/10/16 05:20:19;;;;;;;4.53;2.10;;;;;;;10.97;100.00;100601.56;7397325;19;20400;-47
2022/10/16 05:22:49;;;;;;;6.93;3.33;;;;;;;10.98;100.00;100590.41;7399759;19;20384;-50
2022/10/16 05:25:18;;;;;;;7.07;2.33;;;;;;;10.98;100.00;100595.56;7394872;19;20435;-57
2022/10/16 05:27:50;;;;;;;6.50;2.30;;;;;;;11.03;100.00;100591.47;7398050;19;21218;-55
2022/10/16 05:30:20;;;;;;;6.13;2.87;;;;;;;11.01;100.00;100593.09;7396016;19;20786;-60
2022/10/16 05:32:53;;;;;;;5.57;2.70;;;;;;;11.06;100.00;100591.56;7399418;19;20379;-55
2022/10/16 05:35:23;;;;;;;4.87;2.50;;;;;;;11.06;100.00;100592.44;7396305;19;20434;-59
2022/10/16 05:37:52;;;;;;;8.60;3.10;;;;;;;11.11;100.00;100594.31;7397880;19;20419;-58
2022/10/16 05:40:22;;;;;;;8.70;2.60;;;;;;;11.11;100.00;100597.78;7394410;19;20419;-54
2022/10/16 05:42:52;;;;;;;6.83;2.87;;;;;;;11.07;100.00;100611.38;7399004;19;20912;-53
2022/10/16 05:45:21;;;;;;;8.93;2.90;;;;;;;11.07;100.00;100601.06;7394735;19;20953;-60
2022/10/16 05:47:53;;;;;;;8.13;3.10;;;;;;;11.08;100.00;100597.69;7398690;19;20420;-57
2022/10/16 05:50:22;;;;;;;9.50;3.30;;;;;;;11.12;100.00;100596.09;7395879;19;20418;-57
2022/10/16 05:52:52;;;;;;;7.00;3.37;;;;;;;11.16;100.00;100591.09;7398957;19;20395;-58
2022/10/16 05:55:21;;;;;;;6.80;3.20;;;;;;;11.14;100.00;100579.84;7395751;19;20444;-54
2022/10/16 05:57:51;;;;;;;7.47;2.50;;;;;;;11.15;100.00;100597.09;7399886;19;20392;-58
2022/10/16 06:00:20;;;;;;;6.97;3.27;;;;;;;11.20;100.00;100589.50;7395456;19;20411;-59
2022/10/16 06:02:49;;;;;;;12.23;3.40;;;;;;;11.18;100.00;100599.75;7398510;19;20400;-52
2022/10/16 06:05:21;;;;;;;9.43;3.03;;;;;;;11.15;100.00;100597.09;7386399;19;21364;-57
2022/10/16 06:07:51;;;;;;;8.47;2.80;;;;;;;11.19;100.00;100588.59;7399316;19;20388;-52
2022/10/16 06:10:20;;;;;;;5.27;3.20;;;;;;;11.25;100.00;100587.97;7395658;19;20781;-56
2022/10/16 06:12:49;;;;;;;11.43;3.20;;;;;;;11.24;100.00;100586.22;7398040;19;20415;-55
2022/10/16 06:15:19;;;;;;;11.47;3.30;;;;;;;11.30;100.00;100590.72;7396883;19;20408;-59
2022/10/16 06:17:48;;;;;;;4.20;2.40;;;;;;;11.32;100.00;100591.63;7395187;19;20364;-55
2022/10/16 06:20:18;;;;;;;6.10;3.00;;;;;;;11.31;100.00;100593.34;7394258;19;20430;-58
2022/10/16 06:22:50;;;;;;;3.20;2.10;;;;;;;11.36;100.00;100593.50;7398773;19;20780;-57
2022/10/16 06:25:19;;;;;;;6.80;2.90;;;;;;;11.37;100.00;100599.56;7393251;19;20412;-52
2022/10/16 06:27:48;;;;;;;7.30;3.13;;;;;;;11.42;100.00;100606.66;7394750;19;20392;-53
2022/10/16 06:30:18;;;;;;;9.47;4.57;;;;;;;11.45;100.00;100596.41;7393792;19;20407;-58
2022/10/16 06:32:47;;;;;;;8.30;4.53;;;;;;;11.47;100.00;100604.22;7396934;19;20405;-55
2022/10/16 06:35:17;;;;;;;9.57;4.47;;;;;;;11.48;100.00;100599.13;7394375;19;20756;-54
2022/10/16 06:37:46;;;;;;;8.80;3.70;;;;;;;11.60;100.00;100613.31;7395612;19;20412;-59
2022/10/16 06:40:18;;;;;;;9.43;3.37;;;;;;;11.57;100.00;100620.94;7394313;19;20455;-54
2022/10/16 06:42:47;;;;;;;5.93;2.20;;;;;;;11.59;100.00;100614.13;7396700;19;20399;-52
2022/10/16 06:45:17;;;;;;;7.77;3.53;;;;;;;11.62;100.00;100624.56;7393625;19;20427;-54
2022/10/16 06:47:46;;;;;;;5.53;2.77;;;;;;;11.66;100.00;100625.53;7395658;19;20383;-54
2022/10/16 06:50:16;;;;;;;8.47;4.27;;;;;;;11.67;100.00;100633.34;7393909;19;20415;-60
2022/10/16 06:52:45;;;;;;;7.17;3.57;;;;;;;11.78;100.00;100644.06;7395046;19;20390;-56
2022/10/16 06:55:17;;;;;;;11.30;4.23;;;;;;;11.89;100.00;100644.44;7396100;19;20766;-55
2022/10/16 06:57:49;;;;;;;6.13;2.80;;;;;;;11.97;100.00;100653.34;7395453;19;20384;-56
2022/10/16 07:00:19;;;;;;;26.27;10.20;;;;;;;12.10;100.00;100664.16;7393214;19;20413;-55
2022/10/16 07:02:48;;;;;;;5.80;2.77;;;;;;;12.16;100.00;100669.53;7396254;19;20924;-59
2022/10/16 07:05:17;;;;;;;18.40;7.10;;;;;;;12.27;100.00;100668.16;7393963;19;20448;-56
2022/10/16 07:07:47;;;;;;;32.30;14.87;;;;;;;12.37;100.00;100678.84;7394679;19;20398;-56
2022/10/16 07:10:19;;;;;;;8.90;4.10;;;;;;;12.43;100.00;100686.78;7392009;19;20433;-55
2022/10/16 07:12:48;;;;;;;19.60;7.67;;;;;;;12.52;100.00;100678.47;7395937;19;20756;-56
2022/10/16 07:15:18;;;;;;;13.67;4.57;;;;;;;12.53;100.00;100686.28;7394727;19;20418;-55
2022/10/16 07:17:47;;;;;;;14.20;6.80;;;;;;;12.54;100.00;100695.78;7394642;19;21341;-55
2022/10/16 07:20:16;;;;;;;8.67;4.23;;;;;;;12.54;100.00;100705.25;7392824;19;20418;-59
2022/10/16 07:22:46;;;;;;;10.57;4.83;;;;;;;12.56;100.00;100698.41;7395661;19;20410;-56
2022/10/16 07:25:18;;;;;;;9.37;3.77;;;;;;;12.58;100.00;100714.88;7390876;19;20422;-57
2022/10/16 07:27:47;;;;;;;9.33;4.73;;;;;;;12.58;100.00;100701.94;7394335;19;20408;-53
2022/10/16 07:30:17;;;;;;;5.30;2.90;;;;;;;12.59;100.00;100714.06;7386675;19;20430;-53
2022/10/16 07:32:46;;;;;;;8.97;3.20;;;;;;;12.58;100.00;100719.19;7391313;19;20763;-54
2022/10/16 07:35:16;;;;;;;10.00;3.57;;;;;;;12.61;100.00;100727.06;7389291;19;20421;-57
2022/10/16 07:37:47;;;;;;;11.80;3.47;;;;;;;12.62;100.00;100739.16;7390510;19;20422;-58
2022/10/16 07:40:19;;;;;;;6.60;2.60;;;;;;;12.65;100.00;100739.25;7388452;19;20453;-57
2022/10/16 07:42:48;;;;;;;5.37;3.10;;;;;;;12.72;100.00;100738.63;7392414;19;20412;-56
2022/10/16 07:45:18;;;;;;;16.37;3.87;;;;;;;12.75;100.00;100741.31;7388910;19;20418;-53
2022/10/16 07:47:47;;;;;;;5.63;2.70;;;;;;;12.80;100.00;100732.00;7391701;19;20397;-57
2022/10/16 07:50:17;;;;;;;3.07;2.20;;;;;;;12.87;100.00;100742.56;7389118;19;20413;-56
2022/10/16 07:52:46;;;;;;;8.40;4.13;;;;;;;12.88;100.00;100740.03;7392665;19;20380;-52
2022/10/16 07:55:15;;;;;;;5.90;2.33;;;;;;;12.87;100.00;100755.50;7391828;19;20416;-57
2022/10/16 07:57:47;;;;;;;12.10;4.10;;;;;;;12.89;100.00;100751.25;7391358;19;20388;-57
2022/10/16 08:00:17;;;;;;;5.40;2.33;;;;;;;12.82;100.00;100765.72;7389052;19;21271;-57
2022/10/16 08:02:46;;;;;;;5.90;3.23;;;;;;;12.84;100.00;100766.63;7392505;19;20749;-57
2022/10/16 08:05:16;;;;;;;6.03;2.90;;;;;;;12.80;100.00;100757.88;7387797;19;20427;-52
2022/10/16 08:07:51;;;;;;;6.63;3.63;;;;;;;12.78;100.00;100761.25;7392091;19;20375;-55
2022/10/16 08:10:21;;;;;;;6.30;3.23;;;;;;;12.77;100.00;100765.53;7389995;19;20405;-55
2022/10/16 08:12:53;;;;;;;7.83;3.30;;;;;;;12.80;100.00;100773.41;7392446;19;20386;-57
2022/10/16 08:15:23;;;;;;;6.13;2.63;;;;;;;12.77;100.00;100762.94;7389946;19;20776;-56
2022/10/16 08:18:00;;;;;;;7.10;2.70;;;;;;;12.80;100.00;100770.84;7392315;19;20653;-54
2022/10/16 08:20:31;;;;;;;7.00;3.97;;;;;;;12.85;100.00;100765.78;7390253;19;20763;-60
2022/10/16 08:23:01;;;;;;;6.83;3.57;;;;;;;12.83;100.00;100768.31;7389875;19;20401;-60
2022/10/16 08:25:31;;;;;;;7.97;4.00;;;;;;;12.90;100.00;100760.75;7389288;19;20464;-55
2022/10/16 08:28:03;;;;;;;7.23;4.20;;;;;;;13.00;100.00;100768.00;7393325;19;20924;-56
2022/10/16 08:30:32;;;;;;;5.60;2.97;;;;;;;13.05;100.00;100773.31;7389739;19;20430;-54
2022/10/16 08:33:01;;;;;;;4.53;2.87;;;;;;;13.02;100.00;100773.25;7396037;19;20415;-59
2022/10/16 08:35:31;;;;;;;11.33;3.57;;;;;;;13.12;100.00;100767.50;7387523;19;20760;-52
2022/10/16 08:38:00;;;;;;;4.60;3.60;;;;;;;13.07;100.00;100769.97;7391755;19;20434;-58
2022/10/16 08:40:33;;;;;;;6.00;2.83;;;;;;;12.99;100.00;100776.59;7392451;19;20438;-56
2022/10/16 08:43:18;;;;;;;7.07;3.17;;;;;;;12.98;100.00;100782.63;7392942;19;20386;-53
2022/10/16 08:46:01;;;;;;;6.27;3.33;;;;;;;12.97;100.00;100773.06;7388847;19;20465;-53
2022/10/16 08:48:35;;;;;;;14.13;6.07;;;;;;;13.00;100.00;100770.59;7391238;19;20423;-56
2022/10/16 08:51:05;;;;;;;5.73;3.13;;;;;;;13.09;100.00;100780.38;7390328;19;20410;-56
2022/10/16 08:53:41;;;;;;;4.47;2.83;;;;;;;13.02;100.00;100774.09;7393461;19;20729;-57
2022/10/16 08:56:10;;;;;;;6.40;2.70;;;;;;;13.03;100.00;100783.63;7389067;19;20445;-56
2022/10/16 08:58:42;;;;;;;7.00;3.50;;;;;;;13.16;100.00;100784.91;7393655;19;20427;-54
2022/10/16 09:01:15;;;;;;;5.00;3.20;;;;;;;13.34;100.00;100802.72;7389847;19;20436;-56
2022/10/16 09:04:09;;;;;;;5.60;2.77;;;;;;;13.41;100.00;100808.09;7391586;19;21011;-52
2022/10/16 09:06:45;;;;;;;9.50;2.90;;;;;;;13.46;100.00;100823.00;7389888;19;20486;-55
2022/10/16 09:09:29;;;;;;;10.77;2.60;;;;;;;13.50;100.00;100818.81;7389805;19;20443;-51
2022/10/16 09:12:02;;;;;;;7.37;2.80;;;;;;;13.59;100.00;100823.41;7391622;19;20407;-56
2022/10/16 09:14:53;;;;;;;7.47;2.70;;;;;;;13.63;100.00;100825.22;7388728;19;20380;-55
2022/10/16 09:17:41;;;;;;;6.03;2.70;;;;;;;13.66;100.00;100837.41;7391856;19;20383;-52
2022/10/16 09:20:28;;;;;;;4.23;2.20;;;;;;;13.73;100.00;100841.94;7389379;19;20434;-56
2022/10/16 09:23:10;;;;;;;5.87;2.37;;;;;;;13.82;100.00;100852.59;7392149;19;20401;-55
2022/10/16 09:25:41;;;;;;;10.47;2.40;;;;;;;14.02;100.00;100865.28;7387541;19;20454;-59
2022/10/16 09:28:11;;;;;;;5.50;2.13;;;;;;;13.97;100.00;100870.34;7390289;19;20765;-53
2022/10/16 09:30:43;;;;;;;9.80;4.57;;;;;;;13.99;100.00;100867.75;7387366;19;20413;-53
2022/10/16 09:33:14;;;;;;;4.50;2.30;;;;;;;14.02;100.00;100873.06;7395306;19;20922;-55
2022/10/16 09:35:45;;;;;;;7.50;2.40;;;;;;;14.04;100.00;100873.97;7388713;19;20964;-57
2022/10/16 09:38:28;;;;;;;3.40;1.53;;;;;;;14.10;100.00;100878.47;7390303;19;20428;-51
2022/10/16 09:40:58;;;;;;;10.73;1.53;;;;;;;14.16;100.00;100887.31;7389164;19;21067;-49
2022/10/16 09:43:36;;;;;;;7.27;2.20;;;;;;;14.36;100.00;100879.19;7391453;19;20482;-56
2022/10/16 09:46:10;;;;;;;3.83;1.90;;;;;;;14.42;100.00;100875.91;7387817;19;20422;-56
2022/10/16 09:48:42;;;;;;;4.83;1.73;;;;;;;14.55;100.00;100895.28;7389004;19;20411;-51
2022/10/16 09:51:20;;;;;;;4.50;1.90;;;;;;;14.60;100.00;100904.09;7383126;19;20406;-53
2022/10/16 09:53:50;;;;;;;2.37;1.07;;;;;;;14.61;100.00;100903.25;7397471;19;20407;-55
2022/10/16 09:56:27;;;;;;;5.23;1.77;;;;;;;14.74;100.00;100917.50;7397275;19;20445;-58
2022/10/16 09:58:58;;;;;;;3.70;1.70;;;;;;;14.82;100.00;100918.56;7396214;19;20443;-49
2022/10/16 10:01:33;;;;;;;4.17;1.37;;;;;;;14.89;100.00;100935.22;7398857;19;20992;-56
2022/10/16 10:04:03;;;;;;;4.17;1.23;;;;;;;14.83;100.00;100955.81;7398183;19;20399;-54
2022/10/16 10:06:37;;;;;;;9.23;1.63;;;;;;;14.79;100.00;100960.06;7393847;19;20463;-55
2022/10/16 10:09:09;;;;;;;4.63;2.30;;;;;;;14.85;100.00;100946.34;7395783;19;20422;-59
2022/10/16 10:11:40;;;;;;;7.00;1.87;;;;;;;14.90;100.00;100952.56;7393193;19;20455;-58
2022/10/16 10:14:36;;;;;;;4.77;1.40;;;;;;;14.93;100.00;100963.00;7395297;19;20415;-51
2022/10/16 10:17:16;;;;;;;5.17;2.03;;;;;;;15.02;100.00;100952.00;7394452;19;20446;-49
2022/10/16 10:19:49;;;;;;;7.60;2.30;;;;;;;15.10;100.00;100947.91;7392471;19;20403;-60
2022/10/16 10:22:20;;;;;;;5.20;2.00;;;;;;;15.28;100.00;100958.72;7397658;19;20393;-55
2022/10/16 10:25:02;;;;;;;5.70;2.13;;;;;;;15.40;100.00;100953.84;7393974;19;20944;-53
2022/10/16 10:27:41;;;;;;;10.33;1.63;;;;;;;14.96;100.00;100967.41;7394744;19;20750;-58
2022/10/16 10:30:17;;;;;;;4.30;1.07;;;;;;;15.16;100.00;100969.66;7394137;19;21216;-55
2022/10/16 10:32:54;;;;;;;6.67;1.30;;;;;;;15.12;100.00;100973.91;7399924;19;20386;-58
2022/10/16 10:35:27;;;;;;;5.07;1.60;;;;;;;15.17;100.00;100977.50;7394941;19;20785;-56
2022/10/16 10:38:06;;;;;;;5.30;1.50;;;;;;;15.37;100.00;100980.63;7395814;19;20439;-53
2022/10/16 10:40:46;;;;;;;4.97;1.40;;;;;;;15.36;100.00;100993.56;7394365;19;20417;-57
2022/10/16 10:43:25;;;;;;;6.43;3.03;;;;;;;15.74;100.00;100980.66;7396952;19;20386;-59
2022/10/16 10:45:57;;;;;;;5.07;1.87;;;;;;;15.49;100.00;100990.44;7394090;19;20463;-58
2022/10/16 10:48:45;;;;;;;6.40;3.13;;;;;;;15.38;100.00;100997.09;7395030;19;20428;-53
2022/10/16 10:51:22;;;;;;;5.97;1.57;;;;;;;15.30;100.00;100993.41;7390261;19;20421;-52
2022/10/16 10:53:55;;;;;;;6.30;1.37;;;;;;;15.16;100.00;101001.72;7396316;19;20376;-52
2022/10/16 10:56:44;;;;;;;4.63;1.67;;;;;;;15.25;100.00;100995.91;7392601;19;20474;-54
2022/10/16 10:59:35;;;;;;;3.70;1.00;;;;;;;15.41;100.00;100998.88;7397958;19;20544;-57
2022/10/16 11:02:08;;;;;;;4.13;1.37;;;;;;;15.52;100.00;100998.34;7395639;19;20428;-56
2022/10/16 11:05:05;;;;;;;5.10;2.33;;;;;;;15.78;100.00;101000.69;7393265;19;20386;-58
2022/10/16 11:07:37;;;;;;;7.10;2.40;;;;;;;15.95;100.00;101010.69;7394009;19;20389;-57
2022/10/16 11:10:14;;;;;;;4.60;0.83;;;;;;;15.46;100.00;101019.00;7393058;19;20411;-58
2022/10/16 11:12:46;;;;;;;5.27;1.50;;;;;;;15.65;100.00;101022.06;7395439;19;20409;-57
2022/10/16 11:15:19;;;;;;;4.03;1.47;;;;;;;15.82;100.00;101029.38;7394642;19;20801;-54
2022/10/16 11:17:52;;;;;;;5.40;1.20;;;;;;;16.05;100.00;101022.19;7394763;19;20413;-56
2022/10/16 11:20:27;;;;;;;6.03;1.97;;;;;;;15.95;100.00;101028.88;7392826;19;20417;-55
2022/10/16 11:22:59;;;;;;;7.53;1.40;;;;;;;15.90;100.00;101035.66;7395473;19;20751;-56
2022/10/16 11:25:30;;;;;;;7.87;1.80;;;;;;;15.91;100.00;101050.44;7391872;19;20436;-53
2022/10/16 11:28:04;;;;;;;7.03;1.10;;;;;;;16.12;100.00;101044.00;7393005;19;20432;-52
2022/10/16 11:30:43;;;;;;;7.60;1.20;;;;;;;16.06;100.00;101061.22;7392306;19;20789;-54
2022/10/16 11:33:31;;;;;;;8.80;1.23;;;;;;;16.06;100.00;101076.84;7398816;19;20425;-54
2022/10/16 11:36:09;;;;;;;8.73;1.00;;;;;;;15.93;100.00;101083.50;7392568;19;20412;-59
2022/10/16 11:38:44;;;;;;;4.93;1.50;;;;;;;15.82;100.00;101076.19;7393367;19;20441;-55